Hondo, Texas
Current Conditions -  °F | °C
As of 11:51 PM on Tuesday 21 Oct 2014 (Local Time) from KHDO Reporting Station
Clear Clear  
Wind Chill: 65°   Ceiling: Unl
Heat Index: 65°   Visibility: 10mi
Dew Point: 49°   Wind: 6mph
Humidity: 56%   Direction: 60°ENE
Pressure: 30.06"   Gusts: NA
Location:  29.35°N, 99.14°W
Report Text: KHDO 220451Z AUTO 06005KT 10SM CLR 18/09 A3006 RMK AO2 SLP165 T01830094
Loading
Personal Weather Stations






























Interactive Weather Map
Tropical Storm Tracking
New forecast layout! Learn more

10-Day Weather Forecast

Advertisements
Track Severe Weather on mobile